sensor_id;sensor_type;location;lat;lon;timestamp;P1;durP1;ratioP1;P2;durP2;ratioP2
30149;SDS011;16962;48.646;9.026;2022-08-04T00:00:13;4.65;;;2.00;;
30149;SDS011;16962;48.646;9.026;2022-08-04T00:06:00;3.10;;;1.85;;
30149;SDS011;16962;48.646;9.026;2022-08-04T00:08:53;6.25;;;1.75;;
30149;SDS011;16962;48.646;9.026;2022-08-04T00:11:44;2.30;;;2.10;;
30149;SDS011;16962;48.646;9.026;2022-08-04T00:14:34;2.10;;;1.85;;
30149;SDS011;16962;48.646;9.026;2022-08-04T00:17:24;1.58;;;1.48;;
30149;SDS011;16962;48.646;9.026;2022-08-04T00:20:18;2.63;;;1.52;;
30149;SDS011;16962;48.646;9.026;2022-08-04T00:23:06;3.55;;;1.58;;
30149;SDS011;16962;48.646;9.026;2022-08-04T00:25:56;2.38;;;1.50;;
30149;SDS011;16962;48.646;9.026;2022-08-04T00:28:44;3.42;;;1.83;;
30149;SDS011;16962;48.646;9.026;2022-08-04T00:31:33;3.38;;;1.73;;
30149;SDS011;16962;48.646;9.026;2022-08-04T00:34:41;4.18;;;1.90;;
30149;SDS011;16962;48.646;9.026;2022-08-04T00:37:29;2.15;;;1.80;;
30149;SDS011;16962;48.646;9.026;2022-08-04T00:40:23;2.80;;;1.85;;
30149;SDS011;16962;48.646;9.026;2022-08-04T00:43:31;1.92;;;1.60;;
30149;SDS011;16962;48.646;9.026;2022-08-04T00:58:46;4.07;;;1.50;;
30149;SDS011;16962;48.646;9.026;2022-08-04T01:02:03;3.17;;;1.80;;
30149;SDS011;16962;48.646;9.026;2022-08-04T01:05:23;2.13;;;1.75;;
30149;SDS011;16962;48.646;9.026;2022-08-04T01:11:21;3.08;;;1.42;;
30149;SDS011;16962;48.646;9.026;2022-08-04T01:17:58;1.83;;;1.50;;
30149;SDS011;16962;48.646;9.026;2022-08-04T01:24:15;3.47;;;2.00;;
30149;SDS011;16962;48.646;9.026;2022-08-04T01:30:40;3.67;;;1.63;;
30149;SDS011;16962;48.646;9.026;2022-08-04T01:33:29;2.08;;;1.70;;
30149;SDS011;16962;48.646;9.026;2022-08-04T01:36:44;3.53;;;1.40;;
30149;SDS011;16962;48.646;9.026;2022-08-04T01:39:40;3.80;;;1.98;;
30149;SDS011;16962;48.646;9.026;2022-08-04T01:42:38;3.65;;;1.92;;
30149;SDS011;16962;48.646;9.026;2022-08-04T01:45:27;4.43;;;1.80;;
30149;SDS011;16962;48.646;9.026;2022-08-04T01:48:22;1.85;;;1.70;;
30149;SDS011;16962;48.646;9.026;2022-08-04T01:51:10;3.30;;;2.10;;
30149;SDS011;16962;48.646;9.026;2022-08-04T01:54:00;2.60;;;1.83;;
30149;SDS011;16962;48.646;9.026;2022-08-04T01:56:50;6.47;;;2.17;;
30149;SDS011;16962;48.646;9.026;2022-08-04T01:59:37;2.70;;;1.63;;
30149;SDS011;16962;48.646;9.026;2022-08-04T02:02:25;2.00;;;1.65;;
30149;SDS011;16962;48.646;9.026;2022-08-04T02:05:16;2.42;;;1.95;;
30149;SDS011;16962;48.646;9.026;2022-08-04T02:08:18;2.17;;;1.90;;
30149;SDS011;16962;48.646;9.026;2022-08-04T02:11:14;4.40;;;2.55;;
30149;SDS011;16962;48.646;9.026;2022-08-04T02:17:45;4.75;;;2.45;;
30149;SDS011;16962;48.646;9.026;2022-08-04T02:23:28;2.85;;;2.33;;
30149;SDS011;16962;48.646;9.026;2022-08-04T02:26:16;4.15;;;2.60;;
30149;SDS011;16962;48.646;9.026;2022-08-04T02:32:05;3.10;;;2.50;;
30149;SDS011;16962;48.646;9.026;2022-08-04T02:35:01;3.78;;;2.38;;
30149;SDS011;16962;48.646;9.026;2022-08-04T02:38:00;4.03;;;2.63;;
30149;SDS011;16962;48.646;9.026;2022-08-04T02:40:57;3.90;;;2.38;;
30149;SDS011;16962;48.646;9.026;2022-08-04T02:43:47;4.45;;;2.30;;
30149;SDS011;16962;48.646;9.026;2022-08-04T02:46:38;3.38;;;1.80;;
30149;SDS011;16962;48.646;9.026;2022-08-04T02:49:30;3.55;;;2.53;;
30149;SDS011;16962;48.646;9.026;2022-08-04T02:52:26;4.43;;;2.63;;
30149;SDS011;16962;48.646;9.026;2022-08-04T02:55:15;3.08;;;2.38;;
30149;SDS011;16962;48.646;9.026;2022-08-04T02:58:04;6.15;;;2.42;;
30149;SDS011;16962;48.646;9.026;2022-08-04T03:00:53;4.63;;;2.47;;
30149;SDS011;16962;48.646;9.026;2022-08-04T03:42:19;3.40;;;2.00;;
30149;SDS011;16962;48.646;9.026;2022-08-04T03:48:38;4.85;;;2.30;;
30149;SDS011;16962;48.646;9.026;2022-08-04T04:01:42;2.63;;;2.13;;
30149;SDS011;16962;48.646;9.026;2022-08-04T04:20:41;3.47;;;2.55;;
30149;SDS011;16962;48.646;9.026;2022-08-04T04:27:29;2.40;;;1.95;;
30149;SDS011;16962;48.646;9.026;2022-08-04T04:34:01;4.05;;;2.10;;
30149;SDS011;16962;48.646;9.026;2022-08-04T04:49:48;6.30;;;2.58;;
30149;SDS011;16962;48.646;9.026;2022-08-04T04:55:42;4.15;;;2.10;;
30149;SDS011;16962;48.646;9.026;2022-08-04T04:58:39;3.38;;;2.35;;
30149;SDS011;16962;48.646;9.026;2022-08-04T05:14:42;4.68;;;2.35;;
30149;SDS011;16962;48.646;9.026;2022-08-04T05:17:34;7.35;;;2.65;;
30149;SDS011;16962;48.646;9.026;2022-08-04T05:20:28;4.85;;;2.75;;
30149;SDS011;16962;48.646;9.026;2022-08-04T05:23:28;6.32;;;2.90;;
30149;SDS011;16962;48.646;9.026;2022-08-04T05:26:17;3.78;;;2.40;;
30149;SDS011;16962;48.646;9.026;2022-08-04T05:29:10;5.68;;;2.65;;
30149;SDS011;16962;48.646;9.026;2022-08-04T05:32:06;3.75;;;2.35;;
30149;SDS011;16962;48.646;9.026;2022-08-04T05:34:59;5.40;;;2.40;;
30149;SDS011;16962;48.646;9.026;2022-08-04T05:37:50;10.07;;;3.00;;
30149;SDS011;16962;48.646;9.026;2022-08-04T05:40:47;3.80;;;2.70;;
30149;SDS011;16962;48.646;9.026;2022-08-04T05:43:38;4.72;;;2.60;;
30149;SDS011;16962;48.646;9.026;2022-08-04T05:46:29;6.45;;;3.10;;
30149;SDS011;16962;48.646;9.026;2022-08-04T05:49:17;4.72;;;2.97;;
30149;SDS011;16962;48.646;9.026;2022-08-04T05:52:08;5.93;;;3.10;;
30149;SDS011;16962;48.646;9.026;2022-08-04T05:54:57;5.53;;;2.17;;
30149;SDS011;16962;48.646;9.026;2022-08-04T05:57:46;6.72;;;2.97;;
30149;SDS011;16962;48.646;9.026;2022-08-04T06:00:41;3.88;;;2.30;;
30149;SDS011;16962;48.646;9.026;2022-08-04T06:03:37;4.15;;;2.90;;
30149;SDS011;16962;48.646;9.026;2022-08-04T06:06:29;3.78;;;2.47;;
30149;SDS011;16962;48.646;9.026;2022-08-04T06:09:20;4.18;;;2.05;;
30149;SDS011;16962;48.646;9.026;2022-08-04T06:12:10;7.95;;;2.70;;
30149;SDS011;16962;48.646;9.026;2022-08-04T06:15:03;5.75;;;2.30;;
30149;SDS011;16962;48.646;9.026;2022-08-04T06:17:57;5.35;;;2.30;;
30149;SDS011;16962;48.646;9.026;2022-08-04T06:21:13;5.70;;;2.53;;
30149;SDS011;16962;48.646;9.026;2022-08-04T06:24:04;3.00;;;2.50;;
30149;SDS011;16962;48.646;9.026;2022-08-04T06:26:56;7.15;;;2.60;;
30149;SDS011;16962;48.646;9.026;2022-08-04T06:29:44;11.02;;;2.90;;
30149;SDS011;16962;48.646;9.026;2022-08-04T06:32:37;4.38;;;2.10;;
30149;SDS011;16962;48.646;9.026;2022-08-04T06:35:35;3.85;;;2.50;;
30149;SDS011;16962;48.646;9.026;2022-08-04T06:38:23;2.88;;;2.00;;
30149;SDS011;16962;48.646;9.026;2022-08-04T06:41:12;4.05;;;2.60;;
30149;SDS011;16962;48.646;9.026;2022-08-04T06:44:06;6.35;;;2.25;;
30149;SDS011;16962;48.646;9.026;2022-08-04T06:46:54;6.15;;;2.50;;
30149;SDS011;16962;48.646;9.026;2022-08-04T06:49:43;5.43;;;2.50;;
30149;SDS011;16962;48.646;9.026;2022-08-04T06:52:53;2.03;;;1.83;;
30149;SDS011;16962;48.646;9.026;2022-08-04T06:55:44;3.85;;;2.20;;
30149;SDS011;16962;48.646;9.026;2022-08-04T06:58:32;3.67;;;2.13;;
30149;SDS011;16962;48.646;9.026;2022-08-04T07:01:21;2.78;;;2.15;;
30149;SDS011;16962;48.646;9.026;2022-08-04T07:04:10;3.65;;;2.10;;
30149;SDS011;16962;48.646;9.026;2022-08-04T07:07:00;4.65;;;2.05;;
30149;SDS011;16962;48.646;9.026;2022-08-04T07:09:50;5.93;;;2.10;;
30149;SDS011;16962;48.646;9.026;2022-08-04T07:12:38;2.42;;;2.00;;
30149;SDS011;16962;48.646;9.026;2022-08-04T07:15:43;3.17;;;1.80;;
30149;SDS011;16962;48.646;9.026;2022-08-04T07:18:33;5.60;;;2.30;;
30149;SDS011;16962;48.646;9.026;2022-08-04T07:21:20;2.58;;;1.95;;
30149;SDS011;16962;48.646;9.026;2022-08-04T07:24:09;5.22;;;1.95;;
30149;SDS011;16962;48.646;9.026;2022-08-04T07:26:59;2.08;;;1.90;;
30149;SDS011;16962;48.646;9.026;2022-08-04T07:29:48;3.47;;;1.63;;
30149;SDS011;16962;48.646;9.026;2022-08-04T07:32:36;2.90;;;1.75;;
30149;SDS011;16962;48.646;9.026;2022-08-04T07:35:29;4.95;;;1.95;;
30149;SDS011;16962;48.646;9.026;2022-08-04T07:38:39;5.63;;;2.15;;
30149;SDS011;16962;48.646;9.026;2022-08-04T07:41:37;2.05;;;1.58;;
30149;SDS011;16962;48.646;9.026;2022-08-04T07:44:24;2.00;;;1.50;;
30149;SDS011;16962;48.646;9.026;2022-08-04T07:47:12;2.55;;;1.63;;
30149;SDS011;16962;48.646;9.026;2022-08-04T07:50:02;4.50;;;1.40;;
30149;SDS011;16962;48.646;9.026;2022-08-04T07:52:50;3.47;;;2.00;;
30149;SDS011;16962;48.646;9.026;2022-08-04T07:56:02;2.90;;;1.50;;
30149;SDS011;16962;48.646;9.026;2022-08-04T07:58:50;3.55;;;1.55;;
30149;SDS011;16962;48.646;9.026;2022-08-04T08:01:37;1.98;;;1.50;;
30149;SDS011;16962;48.646;9.026;2022-08-04T08:04:25;5.07;;;1.80;;
30149;SDS011;16962;48.646;9.026;2022-08-04T08:07:13;3.70;;;1.77;;
30149;SDS011;16962;48.646;9.026;2022-08-04T08:10:01;3.10;;;1.88;;
30149;SDS011;16962;48.646;9.026;2022-08-04T08:12:48;1.80;;;1.70;;
30149;SDS011;16962;48.646;9.026;2022-08-04T08:15:38;1.65;;;1.55;;
30149;SDS011;16962;48.646;9.026;2022-08-04T08:18:25;1.85;;;1.33;;
30149;SDS011;16962;48.646;9.026;2022-08-04T08:21:18;2.67;;;1.70;;
30149;SDS011;16962;48.646;9.026;2022-08-04T08:24:06;3.13;;;1.63;;
30149;SDS011;16962;48.646;9.026;2022-08-04T08:26:58;3.67;;;1.60;;
30149;SDS011;16962;48.646;9.026;2022-08-04T08:29:47;1.40;;;1.30;;
30149;SDS011;16962;48.646;9.026;2022-08-04T08:32:37;1.95;;;1.50;;
30149;SDS011;16962;48.646;9.026;2022-08-04T08:35:27;4.28;;;1.58;;
30149;SDS011;16962;48.646;9.026;2022-08-04T08:38:45;2.92;;;1.70;;
30149;SDS011;16962;48.646;9.026;2022-08-04T09:02:04;3.33;;;1.85;;
30149;SDS011;16962;48.646;9.026;2022-08-04T09:05:34;1.75;;;1.45;;
30149;SDS011;16962;48.646;9.026;2022-08-04T09:08:31;1.80;;;1.65;;
30149;SDS011;16962;48.646;9.026;2022-08-04T09:11:44;4.53;;;1.60;;
30149;SDS011;16962;48.646;9.026;2022-08-04T09:17:48;1.73;;;1.52;;
30149;SDS011;16962;48.646;9.026;2022-08-04T09:20:44;1.75;;;1.42;;
30149;SDS011;16962;48.646;9.026;2022-08-04T09:23:47;1.80;;;1.65;;
30149;SDS011;16962;48.646;9.026;2022-08-04T09:30:06;1.25;;;1.17;;
30149;SDS011;16962;48.646;9.026;2022-08-04T09:35:48;2.58;;;1.33;;
30149;SDS011;16962;48.646;9.026;2022-08-04T09:48:34;3.80;;;1.55;;
30149;SDS011;16962;48.646;9.026;2022-08-04T10:01:25;2.15;;;1.60;;
30149;SDS011;16962;48.646;9.026;2022-08-04T10:04:16;6.40;;;1.40;;
30149;SDS011;16962;48.646;9.026;2022-08-04T10:10:14;3.47;;;1.60;;
30149;SDS011;16962;48.646;9.026;2022-08-04T10:19:38;2.35;;;1.40;;
30149;SDS011;16962;48.646;9.026;2022-08-04T10:22:31;2.90;;;1.23;;
30149;SDS011;16962;48.646;9.026;2022-08-04T10:28:54;3.58;;;1.40;;
30149;SDS011;16962;48.646;9.026;2022-08-04T10:35:22;1.75;;;1.17;;
30149;SDS011;16962;48.646;9.026;2022-08-04T10:47:31;1.20;;;1.10;;
30149;SDS011;16962;48.646;9.026;2022-08-04T10:50:23;2.47;;;1.23;;
30149;SDS011;16962;48.646;9.026;2022-08-04T10:53:12;1.30;;;1.10;;
30149;SDS011;16962;48.646;9.026;2022-08-04T10:56:16;2.03;;;1.35;;
30149;SDS011;16962;48.646;9.026;2022-08-04T10:59:15;1.95;;;1.17;;
30149;SDS011;16962;48.646;9.026;2022-08-04T11:02:28;3.33;;;1.08;;
30149;SDS011;16962;48.646;9.026;2022-08-04T11:08:43;1.30;;;1.10;;
30149;SDS011;16962;48.646;9.026;2022-08-04T11:17:55;2.50;;;1.40;;
30149;SDS011;16962;48.646;9.026;2022-08-04T11:21:00;1.00;;;1.00;;
30149;SDS011;16962;48.646;9.026;2022-08-04T11:24:13;3.22;;;1.50;;
30149;SDS011;16962;48.646;9.026;2022-08-04T11:27:08;1.45;;;1.30;;
30149;SDS011;16962;48.646;9.026;2022-08-04T11:30:06;2.67;;;1.50;;
30149;SDS011;16962;48.646;9.026;2022-08-04T11:36:09;2.05;;;1.35;;
30149;SDS011;16962;48.646;9.026;2022-08-04T11:42:14;2.53;;;1.20;;
30149;SDS011;16962;48.646;9.026;2022-08-04T11:45:12;1.63;;;1.30;;
30149;SDS011;16962;48.646;9.026;2022-08-04T11:48:04;3.10;;;1.10;;
30149;SDS011;16962;48.646;9.026;2022-08-04T11:50:56;1.88;;;1.15;;
30149;SDS011;16962;48.646;9.026;2022-08-04T11:53:52;3.45;;;1.30;;
30149;SDS011;16962;48.646;9.026;2022-08-04T11:56:41;4.57;;;1.45;;
30149;SDS011;16962;48.646;9.026;2022-08-04T11:59:28;3.72;;;1.58;;
30149;SDS011;16962;48.646;9.026;2022-08-04T12:05:31;2.25;;;1.20;;
30149;SDS011;16962;48.646;9.026;2022-08-04T12:12:34;2.50;;;1.40;;
30149;SDS011;16962;48.646;9.026;2022-08-04T12:18:20;3.15;;;1.67;;
30149;SDS011;16962;48.646;9.026;2022-08-04T12:21:11;4.13;;;1.33;;
30149;SDS011;16962;48.646;9.026;2022-08-04T12:24:22;3.97;;;0.90;;
30149;SDS011;16962;48.646;9.026;2022-08-04T12:27:30;1.27;;;1.15;;
30149;SDS011;16962;48.646;9.026;2022-08-04T12:30:25;2.08;;;1.30;;
30149;SDS011;16962;48.646;9.026;2022-08-04T12:33:52;3.20;;;1.23;;
30149;SDS011;16962;48.646;9.026;2022-08-04T12:36:57;3.50;;;1.20;;
30149;SDS011;16962;48.646;9.026;2022-08-04T12:39:50;1.77;;;1.50;;
30149;SDS011;16962;48.646;9.026;2022-08-04T12:43:11;3.97;;;1.45;;
30149;SDS011;16962;48.646;9.026;2022-08-04T12:46:19;5.00;;;1.45;;
30149;SDS011;16962;48.646;9.026;2022-08-04T12:49:08;3.08;;;1.42;;
30149;SDS011;16962;48.646;9.026;2022-08-04T12:51:57;2.92;;;1.30;;
30149;SDS011;16962;48.646;9.026;2022-08-04T12:54:54;4.40;;;1.20;;
30149;SDS011;16962;48.646;9.026;2022-08-04T12:57:43;4.05;;;1.35;;
30149;SDS011;16962;48.646;9.026;2022-08-04T13:00:33;3.60;;;1.30;;
30149;SDS011;16962;48.646;9.026;2022-08-04T13:03:28;3.33;;;1.35;;
30149;SDS011;16962;48.646;9.026;2022-08-04T13:06:28;1.48;;;1.10;;
30149;SDS011;16962;48.646;9.026;2022-08-04T13:09:20;3.05;;;1.30;;
30149;SDS011;16962;48.646;9.026;2022-08-04T13:12:12;4.70;;;1.20;;
30149;SDS011;16962;48.646;9.026;2022-08-04T13:15:09;3.60;;;1.42;;
30149;SDS011;16962;48.646;9.026;2022-08-04T13:18:27;2.97;;;1.20;;
30149;SDS011;16962;48.646;9.026;2022-08-04T13:21:18;3.47;;;1.27;;
30149;SDS011;16962;48.646;9.026;2022-08-04T13:24:27;1.33;;;1.13;;
30149;SDS011;16962;48.646;9.026;2022-08-04T13:27:18;2.72;;;1.55;;
30149;SDS011;16962;48.646;9.026;2022-08-04T13:30:08;3.30;;;1.23;;
30149;SDS011;16962;48.646;9.026;2022-08-04T13:33:08;1.65;;;1.30;;
30149;SDS011;16962;48.646;9.026;2022-08-04T13:35:57;4.50;;;1.30;;
30149;SDS011;16962;48.646;9.026;2022-08-04T13:38:50;4.50;;;1.30;;
30149;SDS011;16962;48.646;9.026;2022-08-04T13:41:42;1.58;;;1.13;;
30149;SDS011;16962;48.646;9.026;2022-08-04T13:44:48;3.78;;;1.20;;
30149;SDS011;16962;48.646;9.026;2022-08-04T13:47:41;2.10;;;1.20;;
30149;SDS011;16962;48.646;9.026;2022-08-04T13:50:30;2.92;;;0.90;;
30149;SDS011;16962;48.646;9.026;2022-08-04T13:53:18;3.47;;;1.38;;
30149;SDS011;16962;48.646;9.026;2022-08-04T13:56:08;4.60;;;1.58;;
30149;SDS011;16962;48.646;9.026;2022-08-04T13:59:03;1.48;;;1.35;;
30149;SDS011;16962;48.646;9.026;2022-08-04T14:02:07;1.50;;;1.40;;
30149;SDS011;16962;48.646;9.026;2022-08-04T14:05:05;1.40;;;1.30;;
30149;SDS011;16962;48.646;9.026;2022-08-04T14:08:05;4.53;;;1.30;;
30149;SDS011;16962;48.646;9.026;2022-08-04T14:10:54;1.50;;;1.15;;
30149;SDS011;16962;48.646;9.026;2022-08-04T14:13:43;1.27;;;1.20;;
30149;SDS011;16962;48.646;9.026;2022-08-04T14:16:30;1.55;;;1.20;;
30149;SDS011;16962;48.646;9.026;2022-08-04T14:19:18;2.00;;;1.30;;
30149;SDS011;16962;48.646;9.026;2022-08-04T14:22:05;2.55;;;1.20;;
30149;SDS011;16962;48.646;9.026;2022-08-04T14:28:02;2.60;;;1.40;;
30149;SDS011;16962;48.646;9.026;2022-08-04T14:30:51;2.45;;;1.30;;
30149;SDS011;16962;48.646;9.026;2022-08-04T14:34:01;2.97;;;1.25;;
30149;SDS011;16962;48.646;9.026;2022-08-04T14:37:07;3.55;;;1.55;;
30149;SDS011;16962;48.646;9.026;2022-08-04T14:40:04;6.10;;;1.60;;
30149;SDS011;16962;48.646;9.026;2022-08-04T14:42:55;3.25;;;1.70;;
30149;SDS011;16962;48.646;9.026;2022-08-04T14:45:44;1.88;;;1.33;;
30149;SDS011;16962;48.646;9.026;2022-08-04T14:49:00;2.35;;;1.60;;
30149;SDS011;16962;48.646;9.026;2022-08-04T14:51:54;1.33;;;1.23;;
30149;SDS011;16962;48.646;9.026;2022-08-04T14:54:48;2.63;;;1.50;;
30149;SDS011;16962;48.646;9.026;2022-08-04T14:57:53;3.88;;;1.30;;
30149;SDS011;16962;48.646;9.026;2022-08-04T15:01:01;2.78;;;1.23;;
30149;SDS011;16962;48.646;9.026;2022-08-04T15:03:57;3.95;;;1.58;;
30149;SDS011;16962;48.646;9.026;2022-08-04T15:06:47;2.80;;;1.30;;
30149;SDS011;16962;48.646;9.026;2022-08-04T15:09:34;4.43;;;1.23;;
30149;SDS011;16962;48.646;9.026;2022-08-04T15:12:21;1.77;;;1.40;;
30149;SDS011;16962;48.646;9.026;2022-08-04T15:15:09;2.33;;;1.42;;
30149;SDS011;16962;48.646;9.026;2022-08-04T15:18:20;1.30;;;1.20;;
30149;SDS011;16962;48.646;9.026;2022-08-04T15:21:07;4.13;;;1.40;;
30149;SDS011;16962;48.646;9.026;2022-08-04T15:26:49;1.63;;;1.20;;
30149;SDS011;16962;48.646;9.026;2022-08-04T15:29:41;2.45;;;1.40;;
30149;SDS011;16962;48.646;9.026;2022-08-04T15:32:49;1.55;;;1.45;;
30149;SDS011;16962;48.646;9.026;2022-08-04T15:35:41;2.05;;;1.80;;
30149;SDS011;16962;48.646;9.026;2022-08-04T15:38:35;5.50;;;1.58;;
30149;SDS011;16962;48.646;9.026;2022-08-04T15:41:43;4.15;;;1.70;;
30149;SDS011;16962;48.646;9.026;2022-08-04T15:47:36;2.20;;;1.75;;
30149;SDS011;16962;48.646;9.026;2022-08-04T15:50:26;3.58;;;1.45;;
30149;SDS011;16962;48.646;9.026;2022-08-04T15:53:14;1.65;;;1.30;;
30149;SDS011;16962;48.646;9.026;2022-08-04T15:59:15;2.92;;;1.60;;
30149;SDS011;16962;48.646;9.026;2022-08-04T16:08:10;7.80;;;2.03;;
30149;SDS011;16962;48.646;9.026;2022-08-04T16:10:59;2.30;;;1.63;;
30149;SDS011;16962;48.646;9.026;2022-08-04T16:16:49;2.65;;;1.75;;
30149;SDS011;16962;48.646;9.026;2022-08-04T16:22:30;2.35;;;1.33;;
30149;SDS011;16962;48.646;9.026;2022-08-04T16:25:20;2.03;;;1.40;;
30149;SDS011;16962;48.646;9.026;2022-08-04T16:31:22;4.10;;;1.70;;
30149;SDS011;16962;48.646;9.026;2022-08-04T16:34:10;4.28;;;1.60;;
30149;SDS011;16962;48.646;9.026;2022-08-04T16:37:18;5.60;;;1.80;;
30149;SDS011;16962;48.646;9.026;2022-08-04T16:46:01;3.17;;;1.73;;
30149;SDS011;16962;48.646;9.026;2022-08-04T16:49:05;5.15;;;1.55;;
30149;SDS011;16962;48.646;9.026;2022-08-04T16:51:53;2.22;;;1.73;;
30149;SDS011;16962;48.646;9.026;2022-08-04T16:54:47;1.73;;;1.63;;
30149;SDS011;16962;48.646;9.026;2022-08-04T16:57:37;4.15;;;1.70;;
30149;SDS011;16962;48.646;9.026;2022-08-04T17:00:31;1.65;;;1.55;;
30149;SDS011;16962;48.646;9.026;2022-08-04T17:03:24;4.68;;;1.70;;
30149;SDS011;16962;48.646;9.026;2022-08-04T17:06:13;2.10;;;1.48;;
30149;SDS011;16962;48.646;9.026;2022-08-04T17:12:04;1.70;;;1.60;;
30149;SDS011;16962;48.646;9.026;2022-08-04T17:14:52;2.03;;;1.77;;
30149;SDS011;16962;48.646;9.026;2022-08-04T17:17:39;2.78;;;1.80;;
30149;SDS011;16962;48.646;9.026;2022-08-04T17:20:49;3.03;;;1.58;;
30149;SDS011;16962;48.646;9.026;2022-08-04T17:23:48;5.30;;;2.17;;
30149;SDS011;16962;48.646;9.026;2022-08-04T17:26:59;2.92;;;1.92;;
30149;SDS011;16962;48.646;9.026;2022-08-04T17:29:49;5.18;;;2.00;;
30149;SDS011;16962;48.646;9.026;2022-08-04T17:32:37;4.07;;;2.22;;
30149;SDS011;16962;48.646;9.026;2022-08-04T17:35:25;8.05;;;2.38;;
30149;SDS011;16962;48.646;9.026;2022-08-04T17:38:45;3.67;;;2.00;;
30149;SDS011;16962;48.646;9.026;2022-08-04T17:41:37;4.50;;;1.50;;
30149;SDS011;16962;48.646;9.026;2022-08-04T17:44:34;1.83;;;1.73;;
30149;SDS011;16962;48.646;9.026;2022-08-04T17:47:22;1.55;;;1.45;;
30149;SDS011;16962;48.646;9.026;2022-08-04T17:50:10;7.60;;;1.88;;
30149;SDS011;16962;48.646;9.026;2022-08-04T17:53:11;4.45;;;1.70;;
30149;SDS011;16962;48.646;9.026;2022-08-04T17:55:59;2.65;;;1.83;;
30149;SDS011;16962;48.646;9.026;2022-08-04T17:59:11;2.53;;;2.00;;
30149;SDS011;16962;48.646;9.026;2022-08-04T18:02:26;6.85;;;1.92;;
30149;SDS011;16962;48.646;9.026;2022-08-04T18:05:26;7.47;;;1.83;;
30149;SDS011;16962;48.646;9.026;2022-08-04T18:08:36;6.53;;;1.90;;
30149;SDS011;16962;48.646;9.026;2022-08-04T18:11:35;4.43;;;1.80;;
30149;SDS011;16962;48.646;9.026;2022-08-04T18:14:35;3.85;;;2.35;;
30149;SDS011;16962;48.646;9.026;2022-08-04T18:20:45;4.78;;;2.28;;
30149;SDS011;16962;48.646;9.026;2022-08-04T18:23:35;4.82;;;2.53;;
30149;SDS011;16962;48.646;9.026;2022-08-04T18:26:39;2.03;;;1.83;;
30149;SDS011;16962;48.646;9.026;2022-08-04T18:29:32;2.55;;;2.10;;
30149;SDS011;16962;48.646;9.026;2022-08-04T18:32:24;1.73;;;1.52;;
30149;SDS011;16962;48.646;9.026;2022-08-04T18:35:19;2.70;;;1.85;;
30149;SDS011;16962;48.646;9.026;2022-08-04T18:38:29;3.50;;;2.10;;
30149;SDS011;16962;48.646;9.026;2022-08-04T18:41:17;3.63;;;2.30;;
30149;SDS011;16962;48.646;9.026;2022-08-04T18:44:05;3.30;;;2.10;;
30149;SDS011;16962;48.646;9.026;2022-08-04T18:46:59;3.28;;;2.20;;
30149;SDS011;16962;48.646;9.026;2022-08-04T18:50:09;3.33;;;1.83;;
30149;SDS011;16962;48.646;9.026;2022-08-04T18:53:19;2.33;;;2.13;;
30149;SDS011;16962;48.646;9.026;2022-08-04T18:56:08;6.85;;;2.20;;
30149;SDS011;16962;48.646;9.026;2022-08-04T18:59:15;5.05;;;2.00;;
30149;SDS011;16962;48.646;9.026;2022-08-04T19:02:04;2.00;;;1.80;;
30149;SDS011;16962;48.646;9.026;2022-08-04T19:05:03;5.28;;;1.90;;
30149;SDS011;16962;48.646;9.026;2022-08-04T19:07:50;4.97;;;2.28;;
30149;SDS011;16962;48.646;9.026;2022-08-04T19:10:58;3.50;;;2.42;;
30149;SDS011;16962;48.646;9.026;2022-08-04T19:14:07;4.97;;;2.45;;
30149;SDS011;16962;48.646;9.026;2022-08-04T19:16:59;5.00;;;2.50;;
30149;SDS011;16962;48.646;9.026;2022-08-04T19:19:58;6.13;;;3.08;;
30149;SDS011;16962;48.646;9.026;2022-08-04T19:22:46;3.17;;;2.85;;
30149;SDS011;16962;48.646;9.026;2022-08-04T19:25:56;5.35;;;3.75;;
30149;SDS011;16962;48.646;9.026;2022-08-04T19:28:51;4.75;;;3.20;;
30149;SDS011;16962;48.646;9.026;2022-08-04T19:31:39;8.38;;;3.33;;
30149;SDS011;16962;48.646;9.026;2022-08-04T19:34:27;3.55;;;2.67;;
30149;SDS011;16962;48.646;9.026;2022-08-04T19:37:20;2.92;;;2.38;;
30149;SDS011;16962;48.646;9.026;2022-08-04T19:40:28;2.60;;;2.40;;
30149;SDS011;16962;48.646;9.026;2022-08-04T19:43:19;3.43;;;2.43;;
30149;SDS011;16962;48.646;9.026;2022-08-04T19:46:11;3.22;;;2.63;;
30149;SDS011;16962;48.646;9.026;2022-08-04T19:49:03;4.60;;;2.70;;
30149;SDS011;16962;48.646;9.026;2022-08-04T19:52:11;3.80;;;3.03;;
30149;SDS011;16962;48.646;9.026;2022-08-04T19:55:00;3.95;;;2.65;;
30149;SDS011;16962;48.646;9.026;2022-08-04T19:58:00;3.53;;;2.40;;
30149;SDS011;16962;48.646;9.026;2022-08-04T20:00:53;5.05;;;2.78;;
30149;SDS011;16962;48.646;9.026;2022-08-04T20:03:41;3.65;;;3.00;;
30149;SDS011;16962;48.646;9.026;2022-08-04T20:06:49;6.50;;;3.08;;
30149;SDS011;16962;48.646;9.026;2022-08-04T20:09:39;4.18;;;2.70;;
30149;SDS011;16962;48.646;9.026;2022-08-04T20:12:39;3.13;;;2.40;;
30149;SDS011;16962;48.646;9.026;2022-08-04T20:15:27;3.92;;;2.85;;
30149;SDS011;16962;48.646;9.026;2022-08-04T20:18:18;4.00;;;3.08;;
30149;SDS011;16962;48.646;9.026;2022-08-04T20:21:26;4.40;;;2.97;;
30149;SDS011;16962;48.646;9.026;2022-08-04T20:24:35;3.03;;;2.72;;
30149;SDS011;16962;48.646;9.026;2022-08-04T20:27:34;5.20;;;3.22;;
30149;SDS011;16962;48.646;9.026;2022-08-04T20:30:44;3.05;;;2.75;;
30149;SDS011;16962;48.646;9.026;2022-08-04T20:33:34;4.90;;;2.90;;
30149;SDS011;16962;48.646;9.026;2022-08-04T20:36:22;6.13;;;2.80;;
30149;SDS011;16962;48.646;9.026;2022-08-04T20:39:09;3.15;;;2.63;;
30149;SDS011;16962;48.646;9.026;2022-08-04T20:42:01;6.47;;;3.53;;
30149;SDS011;16962;48.646;9.026;2022-08-04T20:44:48;9.55;;;4.50;;
30149;SDS011;16962;48.646;9.026;2022-08-04T20:47:35;7.95;;;3.67;;
30149;SDS011;16962;48.646;9.026;2022-08-04T20:50:26;5.82;;;3.22;;
30149;SDS011;16962;48.646;9.026;2022-08-04T20:53:16;12.32;;;3.85;;
30149;SDS011;16962;48.646;9.026;2022-08-04T20:56:03;4.55;;;3.47;;
30149;SDS011;16962;48.646;9.026;2022-08-04T20:58:52;6.35;;;3.53;;
30149;SDS011;16962;48.646;9.026;2022-08-04T21:01:39;8.88;;;3.53;;
30149;SDS011;16962;48.646;9.026;2022-08-04T21:04:34;4.97;;;3.67;;
30149;SDS011;16962;48.646;9.026;2022-08-04T21:07:21;8.93;;;3.40;;
30149;SDS011;16962;48.646;9.026;2022-08-04T21:10:11;6.57;;;4.22;;
30149;SDS011;16962;48.646;9.026;2022-08-04T21:13:02;5.57;;;3.25;;
30149;SDS011;16962;48.646;9.026;2022-08-04T21:15:53;10.02;;;3.45;;
30149;SDS011;16962;48.646;9.026;2022-08-04T21:19:00;8.70;;;3.20;;
30149;SDS011;16962;48.646;9.026;2022-08-04T21:21:49;7.72;;;3.25;;
30149;SDS011;16962;48.646;9.026;2022-08-04T21:24:39;5.40;;;3.25;;
30149;SDS011;16962;48.646;9.026;2022-08-04T21:27:34;5.53;;;2.92;;
30149;SDS011;16962;48.646;9.026;2022-08-04T21:30:25;6.30;;;3.10;;
30149;SDS011;16962;48.646;9.026;2022-08-04T21:33:14;4.47;;;3.08;;
30149;SDS011;16962;48.646;9.026;2022-08-04T21:36:02;4.55;;;2.90;;
30149;SDS011;16962;48.646;9.026;2022-08-04T21:38:55;6.03;;;2.90;;
30149;SDS011;16962;48.646;9.026;2022-08-04T21:41:45;4.85;;;3.42;;
30149;SDS011;16962;48.646;9.026;2022-08-04T21:44:56;4.53;;;3.20;;
30149;SDS011;16962;48.646;9.026;2022-08-04T21:47:44;7.57;;;3.45;;
30149;SDS011;16962;48.646;9.026;2022-08-04T21:50:35;4.47;;;3.05;;
30149;SDS011;16962;48.646;9.026;2022-08-04T21:53:22;5.60;;;3.47;;
30149;SDS011;16962;48.646;9.026;2022-08-04T21:56:14;9.60;;;3.65;;
30149;SDS011;16962;48.646;9.026;2022-08-04T21:59:12;12.80;;;3.78;;
30149;SDS011;16962;48.646;9.026;2022-08-04T22:02:08;8.70;;;3.72;;
30149;SDS011;16962;48.646;9.026;2022-08-04T22:04:56;4.90;;;3.42;;
30149;SDS011;16962;48.646;9.026;2022-08-04T22:07:43;5.65;;;3.88;;
30149;SDS011;16962;48.646;9.026;2022-08-04T22:10:37;10.32;;;3.97;;
30149;SDS011;16962;48.646;9.026;2022-08-04T22:13:30;7.47;;;3.80;;
30149;SDS011;16962;48.646;9.026;2022-08-04T22:16:41;5.38;;;4.20;;